Terminal Aerodrome Forecast
Issued by NWS Duluth, MN

Home | Current Version | Previous Version | Text Only | Print | Product List | Glossary On
Versions: 1 2 3 4 5 6 7 8 9 10 11 12 13 14 15 16 17 18 19 20 21
652
FTUS43 KDLH 252341
TAFINL
TAF
KINL 252341Z 2600/2624 11009KT P6SM VCSH SCT080 OVC100
     FM260600 12008KT P6SM VCSH BKN025 OVC070
     FM261300 14008KT P6SM VCTS BKN015CB OVC050
     FM261800 22008KT P6SM SCT035 BKN070=

USA.gov is the U.S. government's official web portal to all federal, state and local government web resources and services.